Time;durP1;ratioP1;P1;durP2;ratioP2;P2;SDS_P1;SDS_P2;PMS_P1;PMS_P2;Temp;Humidity;BMP_temperature;BMP_pressure;BME280_temperature;BME280_humidity;BME280_pressure;Samples;Min_cycle;Max_cycle;Signal;HPM_P1;HPM_P2
2020/12/03 00:01:21;;;;;;;65.53;29.15;;;7.00;95.30;;;;;;4996074;28;20045;-82
2020/12/03 00:03:52;;;;;;;51.80;25.80;;;7.10;95.30;;;;;;4994044;28;20580;-84
2020/12/03 00:06:26;;;;;;;56.22;26.98;;;7.10;95.30;;;;;;4994155;28;20114;-82
2020/12/03 00:09:12;;;;;;;50.95;24.60;;;7.10;95.30;;;;;;5011408;28;20038;-80
2020/12/03 00:11:51;;;;;;;57.88;28.70;;;7.10;95.50;;;;;;4997861;28;20038;-82
2020/12/03 00:14:18;;;;;;;48.88;24.25;;;7.10;95.30;;;;;;4993377;28;20056;-80
2020/12/03 00:16:48;;;;;;;50.10;24.45;;;7.10;95.30;;;;;;4993660;28;20401;-82
2020/12/03 00:19:16;;;;;;;54.42;26.30;;;7.10;95.30;;;;;;4977461;28;20037;-84
2020/12/03 00:21:52;;;;;;;55.15;26.80;;;7.10;95.30;;;;;;4950528;28;20049;-84
2020/12/03 00:24:31;;;;;;;50.15;25.13;;;7.10;95.30;;;;;;4978050;28;20527;-82
2020/12/03 00:27:12;;;;;;;52.78;28.10;;;7.20;95.40;;;;;;5012207;28;20041;-85
2020/12/03 00:29:40;;;;;;;59.65;28.98;;;7.20;95.30;;;;;;5015464;28;20041;-81
2020/12/03 00:32:06;;;;;;;60.97;30.65;;;7.10;95.30;;;;;;5014951;28;20029;-83
2020/12/03 00:34:33;;;;;;;61.60;30.58;;;7.10;95.30;;;;;;4980208;28;20037;-81
2020/12/03 00:37:00;;;;;;;58.35;28.88;;;7.10;95.30;;;;;;4996256;28;20697;-84
2020/12/03 00:39:26;;;;;;;68.00;34.20;;;7.10;95.30;;;;;;4979155;28;20090;-85
2020/12/03 00:41:54;;;;;;;64.47;33.00;;;7.10;95.20;;;;;;4963746;28;20038;-81
2020/12/03 00:44:22;;;;;;;59.78;31.75;;;7.10;95.30;;;;;;4993719;28;20694;-82
2020/12/03 00:46:49;;;;;;;67.57;31.02;;;7.10;95.30;;;;;;4981040;28;20034;-84
2020/12/03 00:49:16;;;;;;;55.00;28.27;;;7.00;95.30;;;;;;4962822;28;20041;-82
2020/12/03 00:51:48;;;;;;;65.15;34.03;;;7.10;95.30;;;;;;4995234;28;20033;-81
2020/12/03 00:54:16;;;;;;;69.28;34.67;;;7.10;95.30;;;;;;4991889;28;20041;-83
2020/12/03 00:56:45;;;;;;;69.40;34.65;;;7.10;95.50;;;;;;4995252;28;20042;-81
2020/12/03 00:59:12;;;;;;;63.67;31.92;;;7.10;95.20;;;;;;4982409;28;20045;-84
2020/12/03 01:01:38;;;;;;;67.25;33.38;;;7.10;95.20;;;;;;4963737;28;20034;-83
2020/12/03 01:04:05;;;;;;;61.55;30.63;;;7.10;95.20;;;;;;5014497;28;20045;-85
2020/12/03 01:06:31;;;;;;;64.18;31.45;;;7.10;95.30;;;;;;4994326;28;20057;-84
2020/12/03 01:08:58;;;;;;;63.65;32.63;;;7.00;95.50;;;;;;4978648;28;20064;-83
2020/12/03 01:11:24;;;;;;;64.13;30.88;;;7.10;95.30;;;;;;4995518;28;20073;-83
2020/12/03 01:13:51;;;;;;;61.92;29.50;;;7.10;95.30;;;;;;4967925;28;20042;-82
2020/12/03 01:16:18;;;;;;;63.50;29.92;;;7.10;95.30;;;;;;4962340;28;20042;-83
2020/12/03 01:18:46;;;;;;;65.18;33.63;;;7.10;95.30;;;;;;4979744;28;20037;-83
2020/12/03 01:21:17;;;;;;;75.10;35.17;;;7.10;95.30;;;;;;4977495;28;20034;-84
2020/12/03 01:23:44;;;;;;;72.97;35.72;;;7.10;95.20;;;;;;4995990;28;20046;-84
2020/12/03 01:26:16;;;;;;;80.25;37.55;;;7.10;95.20;;;;;;4995506;28;20397;-83
2020/12/03 01:28:43;;;;;;;62.35;31.08;;;7.10;95.20;;;;;;4996480;28;20037;-84
2020/12/03 01:31:11;;;;;;;62.05;30.48;;;7.10;95.20;;;;;;4977812;28;20053;-82
2020/12/03 01:33:41;;;;;;;71.80;33.30;;;7.10;95.30;;;;;;4978346;28;20030;-84
2020/12/03 01:36:08;;;;;;;62.60;30.20;;;7.10;95.30;;;;;;4993991;28;20033;-85
2020/12/03 01:38:35;;;;;;;68.00;33.33;;;7.10;95.30;;;;;;4994371;28;20039;-85
2020/12/03 01:41:02;;;;;;;51.88;25.42;;;7.10;95.30;;;;;;4978961;28;20057;-86
2020/12/03 01:43:29;;;;;;;65.20;31.13;;;7.10;95.30;;;;;;4997011;28;20512;-87
2020/12/03 01:45:58;;;;;;;64.57;32.10;;;7.10;95.30;;;;;;4995736;28;20037;-85
2020/12/03 01:48:43;;;;;;;62.55;29.50;;;7.10;95.30;;;;;;4980112;28;20515;-85
2020/12/03 01:51:32;;;;;;;66.32;33.30;;;7.10;95.30;;;;;;4998802;28;20057;-83
2020/12/03 01:54:11;;;;;;;60.00;28.77;;;7.10;95.30;;;;;;4990917;28;20050;-86
2020/12/03 01:56:43;;;;;;;54.05;30.13;;;7.00;95.20;;;;;;4977695;28;20041;-84
2020/12/03 01:59:12;;;;;;;58.72;29.42;;;7.00;95.30;;;;;;4982633;28;20034;-84
2020/12/03 02:01:39;;;;;;;57.63;28.98;;;7.00;95.30;;;;;;4994778;28;20669;-84
2020/12/03 02:04:05;;;;;;;63.60;29.88;;;7.10;95.30;;;;;;4994429;28;20049;-82
2020/12/03 02:06:36;;;;;;;71.43;36.83;;;7.10;95.30;;;;;;4977494;28;20034;-87
2020/12/03 02:09:05;;;;;;;65.78;32.47;;;7.00;95.20;;;;;;4984309;28;20041;-86
2020/12/03 02:11:32;;;;;;;65.68;31.10;;;7.00;95.20;;;;;;4976400;28;20038;-83
2020/12/03 02:14:10;;;;;;;66.45;31.70;;;7.00;95.40;;;;;;4992506;28;20034;-84
2020/12/03 02:16:40;;;;;;;57.10;29.63;;;7.00;95.20;;;;;;5010775;28;20034;-85
2020/12/03 02:19:18;;;;;;;61.47;31.80;;;7.00;95.20;;;;;;4999945;28;20037;-84
2020/12/03 02:21:45;;;;;;;54.47;26.23;;;7.00;95.20;;;;;;4995466;28;20033;-86
2020/12/03 02:24:12;;;;;;;56.42;30.42;;;6.90;95.20;;;;;;5009319;28;20054;-84
2020/12/03 02:26:47;;;;;;;54.65;28.25;;;6.90;95.20;;;;;;4980296;28;20045;-85
2020/12/03 02:29:17;;;;;;;48.90;27.80;;;6.90;95.20;;;;;;4979427;28;20053;-83
2020/12/03 02:31:43;;;;;;;52.50;26.63;;;6.90;95.20;;;;;;4993623;28;20052;-86
2020/12/03 02:34:10;;;;;;;57.47;30.80;;;6.90;95.30;;;;;;4998029;28;20050;-82
2020/12/03 02:36:36;;;;;;;50.70;26.63;;;6.90;95.20;;;;;;4968745;28;20041;-88
2020/12/03 02:39:03;;;;;;;54.95;30.95;;;6.90;95.50;;;;;;4994938;28;20042;-86
2020/12/03 02:41:30;;;;;;;46.08;26.50;;;6.80;95.20;;;;;;4967900;28;20659;-85
2020/12/03 02:43:56;;;;;;;60.97;28.38;;;6.80;95.20;;;;;;4950381;28;20035;-83
2020/12/03 02:46:23;;;;;;;51.63;28.55;;;6.80;95.20;;;;;;4998486;28;20042;-83
2020/12/03 02:48:50;;;;;;;55.80;27.45;;;6.80;95.20;;;;;;4984858;28;20022;-82
2020/12/03 02:51:16;;;;;;;51.45;27.77;;;6.80;95.20;;;;;;4965603;28;20049;-83
2020/12/03 02:53:43;;;;;;;56.53;27.90;;;6.80;95.20;;;;;;4984590;28;20413;-83
2020/12/03 02:56:12;;;;;;;61.35;30.75;;;6.80;95.20;;;;;;4985316;28;20038;-81
2020/12/03 02:58:38;;;;;;;61.13;29.50;;;6.80;95.20;;;;;;5018087;28;20057;-83
2020/12/03 03:01:05;;;;;;;53.78;28.83;;;6.80;95.20;;;;;;4951194;28;20045;-83
2020/12/03 03:03:32;;;;;;;51.13;27.52;;;6.80;95.20;;;;;;4983345;28;20049;-83
2020/12/03 03:05:58;;;;;;;58.38;29.95;;;6.80;95.20;;;;;;4965321;28;20037;-81
2020/12/03 03:08:25;;;;;;;52.28;28.83;;;6.80;95.20;;;;;;5017384;28;20061;-81
2020/12/03 03:10:52;;;;;;;55.55;29.45;;;6.80;95.10;;;;;;4982074;28;20393;-82
2020/12/03 03:13:19;;;;;;;59.22;30.40;;;6.80;95.00;;;;;;4997932;28;20042;-81
2020/12/03 03:15:46;;;;;;;50.80;28.42;;;6.70;95.00;;;;;;4994680;28;20533;-85
2020/12/03 03:18:12;;;;;;;50.22;27.38;;;6.70;95.00;;;;;;4987750;28;20069;-82
2020/12/03 03:20:39;;;;;;;43.00;23.50;;;6.70;95.00;;;;;;4965788;28;20037;-83
2020/12/03 03:23:05;;;;;;;50.47;27.00;;;6.70;95.00;;;;;;4981483;28;20049;-83
2020/12/03 03:25:32;;;;;;;48.05;24.50;;;6.70;95.00;;;;;;4981005;28;20046;-85
2020/12/03 03:37:19;;;;;;;50.47;26.23;;;6.70;95.10;;;;;;5392545;23;20043;-77
2020/12/03 03:39:46;;;;;;;38.05;20.45;;;6.70;95.30;;;;;;4858087;29;20040;-78
2020/12/03 03:42:13;;;;;;;44.65;23.63;;;6.70;95.10;;;;;;4875634;29;20587;-77
2020/12/03 03:44:39;;;;;;;49.75;22.75;;;6.70;95.10;;;;;;4890986;29;20047;-78
2020/12/03 03:47:05;;;;;;;38.13;20.92;;;6.70;95.10;;;;;;4888346;29;20051;-78
2020/12/03 03:49:32;;;;;;;38.60;19.65;;;6.70;95.10;;;;;;4921486;29;20071;-80
2020/12/03 03:51:59;;;;;;;41.38;20.98;;;6.60;95.10;;;;;;4872954;29;20039;-86
2020/12/03 03:54:28;;;;;;;42.67;20.98;;;6.60;95.10;;;;;;4873633;29;20039;-89
2020/12/03 03:56:55;;;;;;;42.20;20.85;;;6.70;95.10;;;;;;4859554;29;20027;-87
2020/12/03 04:12:09;;;;;;;40.78;21.40;;;6.70;95.10;;;;;;4870344;29;20048;-79
2020/12/03 04:14:35;;;;;;;40.58;21.52;;;6.70;95.10;;;;;;4831563;29;20032;-80
2020/12/03 04:17:02;;;;;;;44.22;22.77;;;6.70;95.40;;;;;;4847272;29;20067;-81
2020/12/03 04:19:29;;;;;;;45.22;24.25;;;6.70;95.10;;;;;;4876458;29;20057;-79
2020/12/03 04:21:55;;;;;;;46.55;23.30;;;6.70;95.00;;;;;;4876925;29;20037;-79
2020/12/03 04:24:22;;;;;;;46.88;24.25;;;6.70;95.00;;;;;;4846992;29;20479;-82
2020/12/03 04:26:48;;;;;;;43.75;22.40;;;6.70;95.00;;;;;;4860345;29;20472;-80
2020/12/03 04:29:15;;;;;;;45.10;22.58;;;6.70;95.00;;;;;;4861562;29;20060;-81
2020/12/03 04:31:42;;;;;;;42.78;21.88;;;6.70;95.10;;;;;;4861157;29;20057;-82
2020/12/03 04:34:09;;;;;;;48.30;23.88;;;6.70;95.00;;;;;;4877070;29;20045;-83
2020/12/03 04:36:36;;;;;;;45.95;22.70;;;6.70;95.00;;;;;;4875156;29;20554;-81
2020/12/03 04:39:05;;;;;;;49.17;25.33;;;6.70;95.00;;;;;;4875705;29;20431;-81
2020/12/03 04:41:32;;;;;;;44.10;23.50;;;6.70;94.90;;;;;;4874012;29;20042;-81
2020/12/03 04:44:24;;;;;;;41.50;21.73;;;6.70;95.00;;;;;;4875396;29;20048;-82
2020/12/03 04:47:35;;;;;;;44.45;21.20;;;6.80;95.00;;;;;;4847141;29;20900;-83
2020/12/03 04:50:17;;;;;;;34.80;20.27;;;6.70;95.00;;;;;;4869383;29;20493;-79
2020/12/03 04:52:49;;;;;;;45.35;22.17;;;6.80;95.00;;;;;;4876177;29;20558;-83
2020/12/03 04:55:31;;;;;;;;;;;6.80;95.00;;;;;;4858433;29;20045;-79
2020/12/03 04:58:16;;;;;;;45.60;23.80;;;6.80;95.00;;;;;;4871793;29;19922;-81
2020/12/03 05:01:02;;;;;;;45.60;22.00;;;6.80;95.00;;;;;;4887907;29;20495;-81
2020/12/03 05:03:29;;;;;;;43.65;23.83;;;6.80;95.00;;;;;;4857543;29;20036;-90
2020/12/03 05:06:22;;;;;;;44.13;23.10;;;6.80;95.00;;;;;;4856214;29;20047;-83
2020/12/03 05:09:07;;;;;;;41.85;21.92;;;6.80;95.00;;;;;;4859576;29;20055;-91
2020/12/03 05:11:45;;;;;;;44.85;23.70;;;6.80;95.00;;;;;;4858576;29;20045;-89
2020/12/03 05:14:45;;;;;;;46.55;25.15;;;6.80;95.00;;;;;;4874933;29;20049;-90
2020/12/03 05:17:43;;;;;;;50.53;26.35;;;6.80;94.90;;;;;;4862848;29;20056;-91
2020/12/03 05:20:24;;;;;;;53.45;25.48;;;6.80;94.90;;;;;;4873196;29;20048;-85
2020/12/03 05:23:02;;;;;;;49.05;25.85;;;6.80;95.00;;;;;;4873651;29;20404;-82
2020/12/03 05:25:28;;;;;;;46.15;23.27;;;6.80;95.00;;;;;;4879590;29;20048;-82
2020/12/03 05:28:01;;;;;;;43.10;25.55;;;6.80;95.00;;;;;;4857893;29;20479;-83
2020/12/03 05:30:28;;;;;;;41.47;23.23;;;6.80;95.00;;;;;;4872143;29;20042;-82
2020/12/03 05:32:55;;;;;;;40.22;24.83;;;6.80;94.90;;;;;;4872655;29;20032;-85
2020/12/03 05:35:21;;;;;;;43.17;24.13;;;6.80;94.90;;;;;;4858344;29;20051;-82
2020/12/03 05:37:47;;;;;;;44.90;24.80;;;6.80;94.90;;;;;;4850797;29;20140;-81
2020/12/03 05:40:24;;;;;;;45.75;24.25;;;6.80;94.90;;;;;;4849308;29;20051;-81
2020/12/03 05:42:55;;;;;;;47.90;27.05;;;6.80;94.90;;;;;;4842465;29;20041;-80
2020/12/03 05:45:30;;;;;;;42.78;22.88;;;6.80;95.00;;;;;;4861178;29;20076;-81
2020/12/03 05:47:58;;;;;;;53.60;27.60;;;6.80;94.90;;;;;;4874601;29;20059;-81
2020/12/03 05:50:37;;;;;;;45.85;25.38;;;6.80;94.90;;;;;;4873963;29;20080;-81
2020/12/03 05:53:25;;;;;;;60.63;29.58;;;6.80;94.90;;;;;;4873456;29;20053;-81
2020/12/03 05:56:09;;;;;;;46.33;24.50;;;6.80;94.90;;;;;;4853205;29;20056;-80
2020/12/03 05:58:36;;;;;;;46.15;26.85;;;6.80;94.90;;;;;;4860646;29;20134;-81
2020/12/03 06:01:10;;;;;;;49.28;25.83;;;6.80;94.80;;;;;;4845462;29;20049;-83
2020/12/03 06:04:24;;;;;;;42.53;22.30;;;6.80;94.90;;;;;;4870582;29;20045;-80
2020/12/03 06:07:18;;;;;;;33.10;17.05;;;6.80;95.00;;;;;;4876682;29;20040;-80
2020/12/03 06:09:50;;;;;;;39.75;19.55;;;6.80;95.00;;;;;;4848067;29;20472;-84
2020/12/03 06:12:32;;;;;;;38.40;21.13;;;6.80;95.00;;;;;;4864302;29;20522;-79
2020/12/03 06:15:40;;;;;;;37.30;21.17;;;6.80;95.00;;;;;;4853788;29;20041;-82
2020/12/03 06:18:20;;;;;;;43.58;23.90;;;6.80;95.00;;;;;;4803618;29;20072;-81
2020/12/03 06:21:05;;;;;;;45.08;22.85;;;6.80;95.00;;;;;;4884660;29;20049;-81
2020/12/03 06:24:17;;;;;;;44.55;24.23;;;6.80;95.10;;;;;;4857511;29;20024;-81
2020/12/03 06:27:08;;;;;;;40.53;23.60;;;6.80;95.00;;;;;;4841189;29;20056;-81
2020/12/03 06:30:10;;;;;;;40.55;22.73;;;6.70;95.00;;;;;;4895664;29;20061;-81
2020/12/03 06:33:00;;;;;;;32.80;21.17;;;6.70;95.10;;;;;;4878661;29;20033;-81
2020/12/03 06:35:38;;;;;;;25.98;16.20;;;6.70;95.10;;;;;;4861926;29;20055;-83
2020/12/03 06:38:14;;;;;;;23.27;14.23;;;6.70;95.20;;;;;;4878605;29;20040;-83
2020/12/03 06:41:00;;;;;;;22.83;14.52;;;6.70;95.20;;;;;;4862954;29;20388;-83
2020/12/03 06:49:02;;;;;;;;;;;;;;;;;;;;;
2020/12/03 06:52:23;;;;;;;25.67;16.17;;;6.70;95.30;;;;;;4823673;29;20402;-84
2020/12/03 06:55:26;;;;;;;29.17;17.65;;;6.70;95.30;;;;;;4841127;29;20041;-85
2020/12/03 06:58:57;;;;;;;30.00;17.40;;;6.70;95.30;;;;;;4854105;29;20507;-85
2020/12/03 07:01:49;;;;;;;25.20;16.77;;;6.70;95.30;;;;;;4872175;29;20400;-84
2020/12/03 07:04:38;;;;;;;22.77;15.32;;;6.70;95.40;;;;;;4861824;29;20044;-84
2020/12/03 07:07:21;;;;;;;25.63;15.68;;;6.70;95.40;;;;;;4863564;29;20044;-84
2020/12/03 07:10:30;;;;;;;33.38;18.67;;;6.60;95.40;;;;;;4891180;29;20052;-84
2020/12/03 07:13:15;;;;;;;27.80;15.93;;;6.70;95.50;;;;;;4878220;29;20036;-85
2020/12/03 07:16:07;;;;;;;19.55;13.95;;;6.60;95.50;;;;;;4863154;29;20411;-83
2020/12/03 07:18:59;;;;;;;22.75;14.95;;;6.60;95.60;;;;;;4878754;29;21278;-84
2020/12/03 07:21:53;;;;;;;22.88;14.38;;;6.60;95.60;;;;;;4878419;29;20048;-84
2020/12/03 07:24:31;;;;;;;25.52;14.77;;;6.60;95.60;;;;;;4876714;29;20550;-85
2020/12/03 07:27:36;;;;;;;23.90;14.40;;;6.70;95.60;;;;;;4863372;29;20045;-85
2020/12/03 07:30:25;;;;;;;23.88;13.88;;;6.60;95.60;;;;;;4866265;29;20040;-85
2020/12/03 07:33:39;;;;;;;25.48;14.65;;;6.70;95.70;;;;;;4891946;29;20056;-84
2020/12/03 07:36:36;;;;;;;20.30;12.18;;;6.60;95.60;;;;;;4878018;29;20064;-84
2020/12/03 07:39:20;;;;;;;20.13;12.52;;;6.70;95.70;;;;;;4866019;29;20487;-85
2020/12/03 07:41:59;;;;;;;30.00;17.52;;;6.70;95.70;;;;;;4861084;29;20048;-84
2020/12/03 07:44:26;;;;;;;31.92;19.52;;;6.70;95.60;;;;;;4873185;29;20055;-85
2020/12/03 07:47:14;;;;;;;35.72;21.15;;;6.60;95.60;;;;;;4879273;29;20049;-84
2020/12/03 07:49:46;;;;;;;38.72;21.63;;;6.60;95.70;;;;;;4864881;29;20048;-84
2020/12/03 07:52:40;;;;;;;33.53;17.90;;;6.60;95.70;;;;;;4879973;29;20045;-84
2020/12/03 07:55:35;;;;;;;34.38;19.10;;;6.60;95.70;;;;;;4859130;29;20067;-86
2020/12/03 07:58:35;;;;;;;37.85;19.60;;;6.60;95.70;;;;;;4867351;29;20041;-86
2020/12/03 08:01:06;;;;;;;51.00;24.73;;;6.60;95.80;;;;;;4875934;29;20037;-86
2020/12/03 08:03:41;;;;;;;42.70;22.23;;;6.60;96.00;;;;;;4856980;29;20045;-85
2020/12/03 08:06:14;;;;;;;35.58;20.50;;;6.60;95.70;;;;;;4860360;29;20059;-86
2020/12/03 08:08:57;;;;;;;59.25;27.52;;;6.60;95.70;;;;;;4891883;29;20060;-87
2020/12/03 08:11:43;;;;;;;46.92;24.10;;;6.60;95.70;;;;;;4872677;29;20508;-86
2020/12/03 08:14:28;;;;;;;46.83;23.75;;;6.60;95.70;;;;;;4884940;29;20036;-87
2020/12/03 08:17:03;;;;;;;43.28;22.77;;;6.60;95.70;;;;;;4851153;29;20049;-86
2020/12/03 08:19:40;;;;;;;40.40;21.40;;;6.60;95.80;;;;;;4859063;29;20048;-86
2020/12/03 08:22:49;;;;;;;46.00;21.98;;;6.60;95.80;;;;;;4875914;29;20044;-85
2020/12/03 08:25:30;;;;;;;45.55;22.52;;;6.60;95.80;;;;;;4834683;29;20042;-86
2020/12/03 08:28:09;;;;;;;41.00;23.40;;;6.60;95.80;;;;;;4840288;29;20044;-86
2020/12/03 08:30:53;;;;;;;41.83;21.42;;;6.60;95.80;;;;;;4869897;29;20045;-86
2020/12/03 08:33:38;;;;;;;44.60;23.40;;;6.60;95.70;;;;;;4875118;29;20037;-86
2020/12/03 08:36:19;;;;;;;37.60;22.00;;;6.60;95.70;;;;;;4873883;29;20052;-85
2020/12/03 08:39:20;;;;;;;;;;;;;;;;;;;;;
2020/12/03 08:41:53;;;;;;;41.53;22.20;;;6.60;95.70;;;;;;4869217;29;20408;-86
2020/12/03 08:44:23;;;;;;;30.30;19.20;;;6.60;95.70;;;;;;4867873;29;20067;-87
2020/12/03 08:46:58;;;;;;;50.45;24.73;;;6.60;95.80;;;;;;4848538;29;20045;-86
2020/12/03 08:49:31;;;;;;;38.50;19.70;;;6.60;95.80;;;;;;4875945;29;20059;-86
2020/12/03 08:52:36;;;;;;;44.83;21.67;;;6.60;95.70;;;;;;4855491;29;20036;-86
2020/12/03 08:55:31;;;;;;;34.70;19.48;;;6.70;95.80;;;;;;4863455;29;20048;-86
2020/12/03 08:58:32;;;;;;;38.40;21.48;;;6.70;95.80;;;;;;4845604;29;20055;-86
2020/12/03 09:02:06;;;;;;;34.17;19.77;;;6.70;95.70;;;;;;4844669;29;20045;-88
2020/12/03 09:09:39;;;;;;;38.42;19.67;;;6.70;95.70;;;;;;4837396;29;20053;-87
2020/12/03 09:13:08;;;;;;;;;;;;;;;;;;;;;
2020/12/03 09:16:53;;;;;;;39.40;20.58;;;6.70;95.70;;;;;;4880796;29;20404;-88
2020/12/03 09:20:13;;;;;;;44.67;21.77;;;6.70;95.60;;;;;;4863055;29;20049;-88
2020/12/03 09:23:45;;;;;;;;;;;;;;;;;;;;;
2020/12/03 09:31:36;;;;;;;37.78;18.77;;;6.70;95.70;;;;;;4878610;29;20056;-93
2020/12/03 09:34:49;;;;;;;35.42;17.98;;;6.70;95.60;;;;;;4878398;29;20044;-91
2020/12/03 09:38:01;;;;;;;31.73;18.55;;;6.70;95.60;;;;;;4880705;29;20048;-93
2020/12/03 09:41:40;;;;;;;41.30;20.23;;;6.70;95.60;;;;;;4841197;29;20037;-91
2020/12/03 09:45:05;;;;;;;35.35;19.02;;;6.70;95.60;;;;;;4843820;29;20034;-91
2020/12/03 09:48:07;;;;;;;34.05;18.80;;;6.60;95.60;;;;;;4829617;29;20049;-92
2020/12/03 09:51:20;;;;;;;;;;;;;;;;;;;;;
2020/12/03 09:59:48;;;;;;;40.45;22.17;;;6.60;95.60;;;;;;4895843;29;20144;-93
2020/12/03 10:03:05;;;;;;;;;;;;;;;;;;;;;
2020/12/03 10:06:10;;;;;;;39.25;21.33;;;6.60;95.70;;;;;;4864591;29;20036;-94
2020/12/03 10:08:47;;;;;;;42.03;22.30;;;6.60;95.70;;;;;;4861721;29;20047;-93
2020/12/03 10:12:00;;;;;;;42.00;22.33;;;6.60;95.70;;;;;;4856902;29;20060;-95
2020/12/03 10:22:12;;;;;;;48.22;23.70;;;6.60;95.90;;;;;;4873635;29;20072;-96
2020/12/03 10:25:32;;;;;;;49.38;23.83;;;6.60;95.90;;;;;;4870918;29;20045;-95
2020/12/03 10:29:16;;;;;;;39.50;20.77;;;6.60;95.90;;;;;;4868019;29;20067;-94
2020/12/03 10:31:48;;;;;;;37.88;19.73;;;6.60;96.00;;;;;;4793218;29;20046;-96
2020/12/03 10:34:16;;;;;;;32.97;18.83;;;6.60;95.90;;;;;;4846568;29;20045;-96
2020/12/03 10:40:25;;;;;;;37.20;20.83;;;6.60;95.90;;;;;;4851312;29;20047;-94
2020/12/03 10:43:08;;;;;;;35.35;20.35;;;6.50;95.90;;;;;;4853909;29;20059;-92
2020/12/03 10:45:39;;;;;;;34.65;19.48;;;6.60;96.00;;;;;;4880530;29;20041;-95
2020/12/03 10:48:47;;;;;;;;;;;;;;;;;;;;;
2020/12/03 10:51:23;;;;;;;43.92;22.17;;;6.60;96.00;;;;;;4868043;29;20040;-84
2020/12/03 10:53:58;;;;;;;44.60;22.35;;;6.60;96.00;;;;;;4862883;29;20780;-91
2020/12/03 10:56:37;;;;;;;45.40;21.83;;;6.60;95.90;;;;;;4854873;29;20413;-90
2020/12/03 10:59:28;;;;;;;38.95;22.23;;;6.60;96.00;;;;;;4862476;29;20049;-90
2020/12/03 11:02:48;;;;;;;40.05;20.48;;;6.50;95.90;;;;;;4884180;29;20051;-90
2020/12/03 11:05:23;;;;;;;36.90;19.70;;;6.60;96.00;;;;;;4863075;29;20041;-91
2020/12/03 11:08:19;;;;;;;33.53;18.80;;;6.60;96.00;;;;;;4877652;29;20045;-91
2020/12/03 11:11:18;;;;;;;41.25;21.30;;;6.60;96.10;;;;;;4867806;29;20373;-91
2020/12/03 11:13:57;;;;;;;42.63;23.08;;;6.70;96.10;;;;;;4879815;29;20048;-90
2020/12/03 11:16:32;;;;;;;45.13;23.77;;;6.70;96.00;;;;;;4849019;29;20060;-91
2020/12/03 11:22:14;;;;;;;44.65;24.20;;;6.60;96.00;;;;;;4871972;29;20048;-91
2020/12/03 11:25:23;;;;;;;;;;;;;;;;;;;;;
2020/12/03 11:28:36;;;;;;;42.05;22.83;;;6.70;96.00;;;;;;4876258;29;20044;-90
2020/12/03 11:49:27;;;;;;;46.67;23.02;;;6.70;95.80;;;;;;4778319;29;20042;-80
2020/12/03 11:52:19;;;;;;;37.72;21.00;;;6.70;95.80;;;;;;4813418;29;20069;-91
2020/12/03 11:54:47;;;;;;;37.67;22.63;;;6.70;95.80;;;;;;4853731;29;20045;-86
2020/12/03 11:57:14;;;;;;;35.80;20.67;;;6.70;95.70;;;;;;4897182;29;20061;-83
2020/12/03 11:59:43;;;;;;;39.95;22.38;;;6.70;95.70;;;;;;4881956;29;20037;-95
2020/12/03 12:02:29;;;;;;;35.28;20.65;;;6.70;95.70;;;;;;4859289;29;20044;-91
2020/12/03 12:05:08;;;;;;;34.15;20.83;;;6.80;95.70;;;;;;4865547;29;20043;-93
2020/12/03 12:07:57;;;;;;;37.90;19.85;;;6.80;95.70;;;;;;4867157;29;20052;-92
2020/12/03 12:10:39;;;;;;;31.63;19.80;;;6.80;95.70;;;;;;4880502;29;20048;-86
2020/12/03 12:13:42;;;;;;;34.40;21.25;;;6.80;95.70;;;;;;4888612;29;20689;-83
2020/12/03 12:16:21;;;;;;;30.65;18.83;;;6.80;95.70;;;;;;4861973;29;20119;-84
2020/12/03 12:18:53;;;;;;;37.95;19.35;;;6.80;95.70;;;;;;4873799;29;20044;-83
2020/12/03 12:21:28;;;;;;;31.33;17.75;;;6.80;95.70;;;;;;4879619;29;20048;-82
2020/12/03 12:24:07;;;;;;;29.45;17.70;;;6.80;95.60;;;;;;4862749;29;20091;-83
2020/12/03 12:27:46;;;;;;;;;;;;;;;;;;;;;
2020/12/03 12:39:40;;;;;;;;;;;;;;;;;;;;;
2020/12/03 12:43:18;;;;;;;;;;;;;;;;;;;;;
2020/12/03 12:46:32;;;;;;;24.00;15.25;;;6.70;95.40;;;;;;4822017;29;20436;-87
2020/12/03 12:49:29;;;;;;;25.75;15.02;;;6.80;95.40;;;;;;4789137;29;20074;-89
2020/12/03 12:52:08;;;;;;;27.85;14.85;;;6.70;95.40;;;;;;4789962;29;20061;-87
2020/12/03 12:58:43;;;;;;;28.70;16.38;;;6.80;95.40;;;;;;4823174;29;20040;-89
2020/12/03 13:01:48;;;;;;;25.10;15.25;;;6.70;95.30;;;;;;4826176;29;20045;-87
2020/12/03 13:04:42;;;;;;;27.75;14.82;;;6.70;95.20;;;;;;4860577;29;20052;-88
2020/12/03 13:12:21;;;;;;;;;;;;;;;;;;;;;
2020/12/03 13:19:28;;;;;;;21.63;13.43;;;6.70;95.20;;;;;;4894566;29;20052;-85
2020/12/03 13:22:18;;;;;;;23.17;14.35;;;6.70;95.30;;;;;;4879948;29;20051;-87
2020/12/03 13:25:34;;;;;;;25.40;14.90;;;6.70;95.30;;;;;;4853774;29;20057;-86
2020/12/03 13:28:39;;;;;;;25.52;14.50;;;6.60;95.20;;;;;;4857116;29;20044;-87
2020/12/03 13:31:25;;;;;;;23.02;13.65;;;6.60;95.30;;;;;;4863971;29;20059;-87
2020/12/03 13:34:07;;;;;;;21.70;13.13;;;6.60;95.30;;;;;;4880009;29;20055;-87
2020/12/03 13:36:51;;;;;;;22.80;13.68;;;6.60;95.30;;;;;;4851234;29;20056;-87
2020/12/03 13:39:40;;;;;;;20.45;13.55;;;6.60;95.30;;;;;;4854524;29;20059;-88
2020/12/03 13:42:13;;;;;;;21.77;12.77;;;6.60;95.40;;;;;;4856446;29;20051;-87
2020/12/03 13:44:57;;;;;;;20.63;13.23;;;6.60;95.40;;;;;;4859290;29;20036;-87
2020/12/03 13:47:36;;;;;;;17.85;11.82;;;6.60;95.40;;;;;;4857949;29;20052;-87
2020/12/03 13:50:17;;;;;;;19.92;12.27;;;6.70;95.50;;;;;;4862087;29;20043;-88
2020/12/03 13:53:02;;;;;;;16.63;11.98;;;6.70;95.40;;;;;;4844486;29;20385;-86
2020/12/03 13:55:47;;;;;;;23.52;13.45;;;6.70;95.40;;;;;;4877544;29;20049;-87
2020/12/03 13:58:56;;;;;;;17.00;11.85;;;6.70;95.40;;;;;;4877005;29;20053;-88
2020/12/03 14:01:32;;;;;;;23.33;13.32;;;6.60;95.40;;;;;;4854821;29;20059;-87
2020/12/03 14:04:30;;;;;;;20.77;12.95;;;6.60;95.40;;;;;;4846067;29;20048;-88
2020/12/03 14:07:09;;;;;;;21.83;12.88;;;6.50;95.40;;;;;;4869944;29;20484;-88
2020/12/03 14:09:53;;;;;;;18.40;11.07;;;6.50;95.40;;;;;;4886236;29;20055;-89
2020/12/03 14:12:27;;;;;;;18.95;11.82;;;6.50;95.40;;;;;;4875437;29;20072;-88
2020/12/03 14:14:57;;;;;;;20.30;11.80;;;6.50;95.40;;;;;;4876154;29;20052;-88
2020/12/03 14:17:29;;;;;;;18.73;11.55;;;6.50;95.40;;;;;;4862543;29;20059;-90
2020/12/03 14:20:31;;;;;;;18.55;11.60;;;6.50;95.40;;;;;;4868061;29;20134;-90
2020/12/03 14:23:26;;;;;;;23.77;12.95;;;6.50;95.50;;;;;;4866369;29;20044;-84
2020/12/03 14:26:06;;;;;;;22.15;12.90;;;6.50;95.50;;;;;;4877946;29;20041;-92
2020/12/03 14:28:46;;;;;;;19.70;12.90;;;6.40;95.50;;;;;;4865299;29;20400;-90
2020/12/03 14:43:34;;;;;;;18.73;11.40;;;6.30;95.70;;;;;;4903599;29;20031;-91
2020/12/03 14:46:18;;;;;;;20.13;11.45;;;6.20;95.80;;;;;;4863776;29;20053;-90
2020/12/03 14:49:03;;;;;;;14.25;9.90;;;6.20;95.80;;;;;;4880310;29;20048;-90
2020/12/03 14:56:00;;;;;;;;;;;;;;;;;;;;;
2020/12/03 14:59:40;;;;;;;;;;;;;;;;;;;;;
2020/12/03 15:03:05;;;;;;;15.38;9.57;;;6.20;96.10;;;;;;4873095;29;20173;-91
2020/12/03 15:05:59;;;;;;;15.88;9.32;;;6.10;96.10;;;;;;4825292;29;20485;-91
2020/12/03 15:08:56;;;;;;;13.98;9.88;;;6.10;96.10;;;;;;4833533;29;20496;-89
2020/12/03 15:11:53;;;;;;;12.13;7.68;;;6.10;96.10;;;;;;4823994;29;20056;-87
2020/12/03 15:14:49;;;;;;;12.52;7.38;;;6.10;96.10;;;;;;4814879;29;20182;-88
2020/12/03 15:17:30;;;;;;;9.90;6.78;;;6.10;96.20;;;;;;4817787;29;20049;-86
2020/12/03 15:20:26;;;;;;;;;;;;;;;;;;;;;
2020/12/03 15:23:13;;;;;;;9.48;6.70;;;6.00;96.20;;;;;;4870102;29;20053;-88
2020/12/03 15:26:04;;;;;;;14.18;7.07;;;6.00;96.20;;;;;;4813279;29;20087;-88
2020/12/03 15:28:33;;;;;;;11.90;8.23;;;6.00;96.20;;;;;;4860893;29;20044;-87
2020/12/03 15:31:03;;;;;;;15.20;8.48;;;6.00;96.20;;;;;;4852092;29;20033;-88
2020/12/03 15:34:06;;;;;;;11.82;8.95;;;6.00;96.20;;;;;;4823967;29;20049;-88
2020/12/03 15:37:09;;;;;;;11.55;7.72;;;6.00;96.30;;;;;;4868647;29;20072;-88
2020/12/03 15:39:39;;;;;;;11.43;8.48;;;5.90;96.20;;;;;;4868780;29;20063;-84
2020/12/03 15:42:15;;;;;;;13.50;9.02;;;5.90;96.20;;;;;;4860389;29;20036;-90
2020/12/03 15:44:53;;;;;;;14.18;8.70;;;5.90;96.30;;;;;;4884437;29;20052;-87
2020/12/03 15:47:33;;;;;;;13.98;8.90;;;5.90;96.30;;;;;;4884631;29;20036;-88
2020/12/03 15:50:08;;;;;;;14.93;9.45;;;5.90;96.60;;;;;;4884397;29;20061;-88
2020/12/03 15:52:48;;;;;;;15.88;9.55;;;5.90;96.30;;;;;;4866383;29;20036;-88
2020/12/03 15:55:17;;;;;;;12.18;8.18;;;5.90;96.30;;;;;;4865057;29;20044;-87
2020/12/03 15:57:47;;;;;;;11.98;8.25;;;5.90;96.30;;;;;;4869317;29;20416;-88
2020/12/03 16:00:40;;;;;;;13.07;8.27;;;5.90;96.40;;;;;;4867752;29;20040;-88
2020/12/03 16:03:13;;;;;;;17.08;9.82;;;5.90;96.40;;;;;;4871458;29;20031;-87
2020/12/03 16:05:59;;;;;;;;;;;;;;;;;;;;;
2020/12/03 16:08:45;;;;;;;13.75;8.65;;;5.90;96.40;;;;;;4869423;29;20033;-88